createdAt,value
2018-03-16T00:02:25.895Z,5.10
2018-03-16T00:04:53.465Z,5.10
2018-03-16T00:07:21.119Z,5.00
2018-03-16T00:09:48.777Z,5.00
2018-03-16T00:12:16.340Z,5.00
2018-03-16T00:14:43.924Z,4.90
2018-03-16T00:17:12.250Z,4.90
2018-03-16T00:19:39.824Z,4.90
2018-03-16T00:22:07.391Z,4.90
2018-03-16T00:24:34.972Z,4.90
2018-03-16T00:27:02.625Z,4.80
2018-03-16T00:29:30.214Z,4.80
2018-03-16T00:31:58.549Z,4.90
2018-03-16T00:34:26.114Z,4.80
2018-03-16T00:36:53.695Z,4.90
2018-03-16T00:39:22.040Z,4.90
2018-03-16T00:41:49.614Z,4.90
2018-03-16T00:44:17.167Z,4.90
2018-03-16T00:46:44.746Z,4.90
2018-03-16T00:49:12.311Z,4.90
2018-03-16T00:51:39.889Z,4.90
2018-03-16T00:54:08.217Z,4.90
2018-03-16T00:56:35.801Z,4.90
2018-03-16T00:59:03.476Z,4.90
2018-03-16T01:01:31.036Z,4.90
2018-03-16T01:03:58.627Z,4.90
2018-03-16T01:06:26.257Z,4.80
2018-03-16T01:08:53.839Z,4.80
2018-03-16T01:11:22.168Z,4.80
2018-03-16T01:13:49.749Z,4.80
2018-03-16T01:16:17.324Z,4.80
2018-03-16T01:18:44.974Z,4.80
2018-03-16T01:21:12.546Z,4.80
2018-03-16T01:23:40.127Z,4.70
2018-03-16T01:26:08.460Z,4.80
2018-03-16T01:28:36.036Z,4.80
2018-03-16T01:31:03.600Z,4.80
2018-03-16T01:33:31.202Z,4.70
2018-03-16T01:35:58.762Z,4.70
2018-03-16T01:38:26.378Z,4.70
2018-03-16T01:40:53.960Z,4.80
2018-03-16T01:43:22.332Z,4.80
2018-03-16T01:45:49.990Z,4.70
2018-03-16T01:48:17.547Z,4.80
2018-03-16T01:50:45.132Z,4.70
2018-03-16T01:53:17.412Z,4.70
2018-03-16T01:55:45.764Z,4.70
2018-03-16T01:58:14.830Z,4.70
2018-03-16T02:00:42.515Z,4.70
2018-03-16T02:03:11.579Z,4.70
2018-03-16T02:05:39.189Z,4.70
2018-03-16T02:08:06.742Z,4.70
2018-03-16T02:10:34.331Z,4.60
2018-03-16T02:13:02.683Z,4.60
2018-03-16T02:15:30.240Z,4.60
2018-03-16T02:17:57.815Z,4.60
2018-03-16T02:20:26.146Z,4.60
2018-03-16T02:22:53.719Z,4.60
2018-03-16T02:25:21.284Z,4.60
2018-03-16T02:27:48.865Z,4.60
2018-03-16T02:30:16.424Z,4.60
2018-03-16T02:32:44.083Z,4.50
2018-03-16T02:35:11.648Z,4.50
2018-03-16T02:37:39.238Z,4.50
2018-03-16T02:40:06.796Z,4.60
2018-03-16T02:42:35.281Z,4.60
2018-03-16T02:45:02.839Z,4.50
2018-03-16T02:47:31.188Z,4.50
2018-03-16T02:49:58.852Z,4.50
2018-03-16T02:52:27.220Z,4.50
2018-03-16T02:54:54.784Z,4.60
2018-03-16T02:57:22.345Z,4.50
2018-03-16T02:59:50.010Z,4.60
2018-03-16T03:02:18.361Z,4.50
2018-03-16T03:04:45.939Z,4.50
2018-03-16T03:07:13.521Z,4.50
2018-03-16T03:09:41.105Z,4.50
2018-03-16T03:12:09.436Z,4.50
2018-03-16T03:14:37.014Z,4.50
2018-03-16T03:17:04.571Z,4.50
2018-03-16T03:19:32.154Z,4.50
2018-03-16T03:22:00.487Z,4.40
2018-03-16T03:24:28.070Z,4.40
2018-03-16T03:26:55.693Z,4.40
2018-03-16T03:29:23.277Z,4.40
2018-03-16T03:31:50.839Z,4.40
2018-03-16T03:34:18.464Z,4.40
2018-03-16T03:36:46.904Z,4.40
2018-03-16T03:39:14.493Z,4.40
2018-03-16T03:41:42.820Z,4.40
2018-03-16T03:44:10.418Z,4.40
2018-03-16T03:46:38.752Z,4.50
2018-03-16T03:49:06.347Z,4.40
2018-03-16T03:51:35.430Z,4.40
2018-03-16T03:54:03.007Z,4.50
2018-03-16T03:56:30.664Z,4.50
2018-03-16T03:58:58.218Z,4.50
2018-03-16T04:01:25.893Z,4.50
2018-03-16T04:03:53.461Z,4.50
2018-03-16T04:06:21.822Z,4.50
2018-03-16T04:08:49.392Z,4.50
2018-03-16T04:11:17.058Z,4.50
2018-03-16T04:13:44.623Z,4.50
2018-03-16T04:16:12.211Z,4.50
2018-03-16T04:18:39.781Z,4.50
2018-03-16T04:21:07.396Z,4.40
2018-03-16T04:23:34.960Z,4.40
2018-03-16T04:26:02.552Z,4.50
2018-03-16T04:28:31.337Z,4.50
2018-03-16T04:30:59.684Z,4.50
2018-03-16T04:33:27.351Z,4.50
2018-03-16T04:35:54.920Z,4.50
2018-03-16T04:38:22.721Z,4.50
2018-03-16T04:40:50.341Z,4.50
2018-03-16T04:43:18.004Z,4.50
2018-03-16T04:45:45.660Z,4.50
2018-03-16T04:48:13.246Z,4.50
2018-03-16T04:50:41.586Z,4.50
2018-03-16T04:53:09.175Z,4.50
2018-03-16T04:55:36.828Z,4.50
2018-03-16T04:58:04.411Z,4.50
2018-03-16T05:00:32.776Z,4.50
2018-03-16T05:03:00.382Z,4.50
2018-03-16T05:05:27.948Z,4.50
2018-03-16T05:07:55.507Z,4.50
2018-03-16T05:10:23.117Z,4.40
2018-03-16T05:12:50.680Z,4.50
2018-03-16T05:15:18.266Z,4.40
2018-03-16T05:17:45.836Z,4.40
2018-03-16T05:20:13.456Z,4.40
2018-03-16T05:22:41.023Z,4.40
2018-03-16T05:25:08.610Z,4.50
2018-03-16T05:27:36.176Z,4.50
2018-03-16T05:30:03.806Z,4.50
2018-03-16T05:32:31.364Z,4.50
2018-03-16T05:34:58.944Z,4.50
2018-03-16T05:37:27.300Z,4.50
2018-03-16T05:39:54.886Z,4.50
2018-03-16T05:42:23.216Z,4.50
2018-03-16T05:44:50.821Z,4.50
2018-03-16T05:47:20.172Z,4.50
2018-03-16T05:49:47.727Z,4.40
2018-03-16T05:52:15.308Z,4.40
2018-03-16T05:54:42.888Z,4.40
2018-03-16T05:57:10.475Z,4.40
2018-03-16T05:59:38.808Z,4.40
2018-03-16T06:02:06.388Z,4.40
2018-03-16T06:04:33.952Z,4.40
2018-03-16T06:07:01.532Z,4.50
2018-03-16T06:09:29.891Z,4.60
2018-03-16T06:11:57.486Z,4.60
2018-03-16T06:14:25.113Z,4.60
2018-03-16T06:16:52.696Z,4.60
2018-03-16T06:19:21.016Z,4.60
2018-03-16T06:21:48.600Z,4.60
2018-03-16T06:24:16.160Z,4.60
2018-03-16T06:26:43.748Z,4.60
2018-03-16T06:29:12.080Z,4.60
2018-03-16T06:31:39.672Z,4.70
2018-03-16T06:34:07.335Z,4.70
2018-03-16T06:36:34.998Z,4.70
2018-03-16T06:39:02.659Z,4.70
2018-03-16T06:41:30.220Z,4.80
2018-03-16T06:43:57.812Z,4.80
2018-03-16T06:46:26.144Z,4.80
2018-03-16T06:48:53.830Z,4.80
2018-03-16T06:51:21.493Z,4.80
2018-03-16T06:53:49.154Z,4.80
2018-03-16T06:56:16.711Z,4.90
2018-03-16T06:58:44.292Z,4.90
2018-03-16T07:01:12.622Z,5.10
2018-03-16T07:03:40.214Z,5.00
2018-03-16T07:06:07.793Z,5.10
2018-03-16T07:08:36.163Z,5.40
2018-03-16T07:11:03.737Z,5.40
2018-03-16T07:13:32.087Z,5.60
2018-03-16T07:15:59.756Z,5.60
2018-03-16T07:18:27.335Z,5.70
2018-03-16T07:20:55.663Z,5.70
2018-03-16T07:23:23.261Z,5.70
2018-03-16T07:25:50.833Z,5.70
2018-03-16T07:28:19.203Z,5.70
2018-03-16T07:30:47.537Z,5.70
2018-03-16T07:33:15.109Z,5.70
2018-03-16T07:35:42.691Z,5.70
2018-03-16T07:38:10.248Z,5.70
2018-03-16T07:40:37.921Z,5.80
2018-03-16T07:43:05.476Z,5.80
2018-03-16T07:45:38.715Z,5.80
2018-03-16T07:48:06.339Z,5.80
2018-03-16T07:50:33.995Z,5.90
2018-03-16T07:53:01.561Z,5.90
2018-03-16T07:55:29.229Z,6.00
2018-03-16T07:57:56.804Z,6.10
2018-03-16T08:00:25.148Z,6.30
2018-03-16T08:02:52.717Z,6.30
2018-03-16T08:05:21.903Z,6.40
2018-03-16T08:07:49.469Z,6.40
2018-03-16T08:10:17.050Z,6.50
2018-03-16T08:12:45.428Z,6.50
2018-03-16T08:15:13.118Z,6.50
2018-03-16T08:17:41.454Z,6.60
2018-03-16T08:20:09.127Z,6.60
2018-03-16T08:22:36.713Z,6.60
2018-03-16T08:25:05.044Z,6.60
2018-03-16T08:27:32.623Z,6.60
2018-03-16T08:30:00.283Z,6.70
2018-03-16T08:32:27.868Z,6.60
2018-03-16T08:34:56.197Z,6.60
2018-03-16T08:37:23.889Z,6.60
2018-03-16T08:39:51.552Z,6.50
2018-03-16T08:42:19.134Z,6.40
2018-03-16T08:44:47.459Z,6.30
2018-03-16T08:47:15.044Z,6.30
2018-03-16T08:49:42.615Z,6.20
2018-03-16T08:52:10.285Z,6.20
2018-03-16T08:54:38.637Z,6.20
2018-03-16T08:57:06.201Z,6.20
2018-03-16T08:59:33.885Z,6.20
2018-03-16T09:02:01.459Z,6.20
2018-03-16T09:04:29.811Z,6.10
2018-03-16T09:06:57.380Z,6.10
2018-03-16T09:09:24.962Z,6.10
2018-03-16T09:11:53.302Z,6.10
2018-03-16T09:14:20.884Z,6.10
2018-03-16T09:16:48.545Z,6.10
2018-03-16T09:19:16.139Z,6.20
2018-03-16T09:21:43.708Z,6.20
2018-03-16T09:24:11.307Z,6.30
2018-03-16T09:26:38.893Z,6.40
2018-03-16T09:29:06.473Z,6.40
2018-03-16T09:31:34.795Z,6.50
2018-03-16T09:34:02.389Z,6.40
2018-03-16T09:36:29.959Z,6.50
2018-03-16T09:38:57.545Z,6.60
2018-03-16T09:41:25.120Z,6.60
2018-03-16T09:43:52.804Z,6.70
2018-03-16T09:46:20.387Z,6.80
2018-03-16T09:48:47.950Z,6.70
2018-03-16T09:51:15.617Z,6.80
2018-03-16T09:53:43.285Z,6.80
2018-03-16T09:56:10.877Z,6.90
2018-03-16T09:58:38.445Z,7.00
2018-03-16T10:01:06.033Z,7.20
2018-03-16T10:03:33.600Z,7.20
2018-03-16T10:06:01.189Z,7.30
2018-03-16T10:08:28.753Z,7.30
2018-03-16T10:10:57.085Z,7.40
2018-03-16T10:13:24.687Z,7.40
2018-03-16T10:15:52.246Z,7.50
2018-03-16T10:18:19.834Z,7.50
2018-03-16T10:20:48.168Z,7.50
2018-03-16T10:23:15.755Z,7.50
2018-03-16T10:25:43.317Z,7.50
2018-03-16T10:28:10.976Z,7.60
2018-03-16T10:30:38.546Z,7.60
2018-03-16T10:33:06.892Z,7.60
2018-03-16T10:35:34.456Z,7.60
2018-03-16T10:38:02.042Z,7.70
2018-03-16T10:40:30.375Z,8.10
2018-03-16T10:42:57.970Z,8.10
2018-03-16T10:45:25.540Z,8.30
2018-03-16T10:47:53.197Z,8.50
2018-03-16T10:50:20.860Z,8.60
2018-03-16T10:52:48.425Z,8.60
2018-03-16T10:55:16.012Z,8.90
2018-03-16T10:57:44.343Z,9.30
2018-03-16T11:00:11.935Z,9.30
2018-03-16T11:02:46.122Z,9.10
2018-03-16T11:05:28.328Z,9.10
2018-03-16T11:07:57.838Z,9.00
2018-03-16T11:10:25.417Z,8.90
2018-03-16T11:12:54.500Z,8.70
2018-03-16T11:15:22.171Z,8.70
2018-03-16T11:17:49.739Z,9.00
2018-03-16T11:20:17.392Z,9.10
2018-03-16T11:22:45.060Z,9.20
2018-03-16T11:25:12.659Z,9.20
2018-03-16T11:27:40.216Z,9.10
2018-03-16T11:30:07.793Z,9.00
2018-03-16T11:32:35.352Z,9.00
2018-03-16T11:35:02.936Z,9.00
2018-03-16T11:37:30.552Z,8.90
2018-03-16T11:39:58.184Z,8.70
2018-03-16T11:42:26.528Z,8.60
2018-03-16T11:44:54.088Z,8.60
2018-03-16T11:47:21.672Z,8.70
2018-03-16T11:49:49.248Z,8.70
2018-03-16T11:52:16.911Z,8.70
2018-03-16T11:54:44.552Z,8.60
2018-03-16T11:57:12.139Z,8.60
2018-03-16T11:59:39.745Z,8.60
2018-03-16T12:02:08.055Z,8.40
2018-03-16T12:04:35.618Z,8.40
2018-03-16T12:07:03.217Z,8.40
2018-03-16T12:09:31.555Z,8.20
2018-03-16T12:11:59.165Z,8.30
2018-03-16T12:14:27.492Z,8.20
2018-03-16T12:16:55.060Z,8.20
2018-03-16T12:19:22.651Z,8.20
2018-03-16T12:21:50.973Z,8.20
2018-03-16T12:24:18.581Z,8.20
2018-03-16T12:26:46.151Z,8.20
2018-03-16T12:29:14.518Z,8.20
2018-03-16T12:31:42.173Z,8.10
2018-03-16T12:34:09.835Z,8.20
2018-03-16T12:36:37.402Z,8.20
2018-03-16T12:39:05.980Z,8.20
2018-03-16T12:41:33.639Z,8.20
2018-03-16T12:44:01.223Z,8.20
2018-03-16T12:46:29.556Z,8.00
2018-03-16T12:48:57.137Z,8.10
2018-03-16T12:51:24.711Z,8.10
2018-03-16T12:53:53.057Z,8.00
2018-03-16T12:56:20.648Z,8.00
2018-03-16T12:58:48.204Z,8.10
2018-03-16T13:01:15.792Z,8.20
2018-03-16T13:03:44.129Z,8.10
2018-03-16T13:06:11.812Z,8.10
2018-03-16T13:08:39.376Z,8.20
2018-03-16T13:11:07.724Z,8.30
2018-03-16T13:13:35.303Z,8.30
2018-03-16T13:16:02.934Z,8.40
2018-03-16T13:18:30.592Z,8.40
2018-03-16T13:20:58.178Z,8.40
2018-03-16T13:23:25.760Z,8.50
2018-03-16T13:25:53.421Z,8.50
2018-03-16T13:28:23.514Z,8.60
2018-03-16T13:30:51.093Z,8.60
2018-03-16T13:33:18.656Z,8.60
2018-03-16T13:35:47.745Z,8.70
2018-03-16T13:38:15.326Z,8.70
2018-03-16T13:40:42.925Z,8.80
2018-03-16T13:43:10.476Z,8.90
2018-03-16T13:45:38.042Z,9.10
2018-03-16T13:48:05.665Z,9.30
2018-03-16T13:50:33.230Z,9.40
2018-03-16T13:53:00.885Z,9.40
2018-03-16T13:55:29.212Z,9.50
2018-03-16T13:57:56.888Z,9.50
2018-03-16T14:00:24.483Z,9.40
2018-03-16T14:02:52.063Z,9.40
2018-03-16T14:05:20.392Z,9.20
2018-03-16T14:07:47.964Z,9.20
2018-03-16T14:10:15.545Z,9.10
2018-03-16T14:12:43.117Z,9.00
2018-03-16T14:15:11.440Z,8.90
2018-03-16T14:17:39.017Z,8.80
2018-03-16T14:20:06.583Z,8.80
2018-03-16T14:22:34.173Z,8.70
2018-03-16T14:25:01.727Z,8.70
2018-03-16T14:27:29.321Z,8.60
2018-03-16T14:29:57.635Z,8.60
2018-03-16T14:32:25.228Z,8.60
2018-03-16T14:34:52.812Z,8.60
2018-03-16T14:37:21.133Z,8.60
2018-03-16T14:39:48.706Z,8.60
2018-03-16T14:42:16.322Z,8.70
2018-03-16T14:44:44.663Z,8.60
2018-03-16T14:47:12.233Z,8.60
2018-03-16T14:49:39.819Z,8.60
2018-03-16T14:52:07.396Z,8.50
2018-03-16T14:54:34.971Z,8.40
2018-03-16T14:57:02.535Z,8.30
2018-03-16T14:59:30.140Z,8.30
2018-03-16T15:01:57.690Z,8.30
2018-03-16T15:04:25.360Z,8.20
2018-03-16T15:06:53.023Z,8.10
2018-03-16T15:09:20.600Z,8.00
2018-03-16T15:11:48.925Z,8.00
2018-03-16T15:14:16.504Z,7.90
2018-03-16T15:16:44.067Z,7.90
2018-03-16T15:19:11.749Z,7.80
2018-03-16T15:21:39.429Z,7.80
2018-03-16T15:24:07.794Z,7.70
2018-03-16T15:26:35.420Z,7.70
2018-03-16T15:29:02.970Z,7.70
2018-03-16T15:31:30.673Z,7.70
2018-03-16T15:33:58.194Z,7.80
2018-03-16T15:36:25.754Z,7.90
2018-03-16T15:38:53.276Z,7.90
2018-03-16T15:41:21.594Z,8.00
2018-03-16T15:43:49.160Z,7.90
2018-03-16T15:46:16.803Z,8.00
2018-03-16T15:48:44.543Z,7.90
2018-03-16T15:51:12.935Z,8.00
2018-03-16T15:53:41.546Z,8.00
2018-03-16T15:56:09.397Z,8.00
2018-03-16T15:58:37.079Z,8.10
2018-03-16T16:01:04.964Z,8.20
2018-03-16T16:03:32.711Z,8.30
2018-03-16T16:06:00.347Z,8.30
2018-03-16T16:08:27.900Z,8.40
2018-03-16T16:10:56.243Z,8.30
2018-03-16T16:13:23.966Z,8.30
2018-03-16T16:15:51.487Z,8.20
2018-03-16T16:18:19.910Z,8.20
2018-03-16T16:20:47.439Z,8.10
2018-03-16T16:23:15.750Z,8.20
2018-03-16T16:25:43.282Z,8.10
2018-03-16T16:28:11.594Z,8.10
2018-03-16T16:30:39.121Z,8.10
2018-03-16T16:33:07.438Z,7.60
2018-03-16T16:35:34.977Z,7.60
2018-03-16T16:38:02.581Z,7.30
2018-03-16T16:40:30.099Z,7.00
2018-03-16T16:42:57.637Z,6.80
2018-03-16T16:45:28.197Z,6.60
2018-03-16T16:47:55.774Z,6.50
2018-03-16T16:50:25.471Z,6.50
2018-03-16T16:52:53.247Z,6.50
2018-03-16T16:55:20.764Z,6.40
2018-03-16T16:57:49.068Z,6.20
2018-03-16T17:00:16.645Z,6.20
2018-03-16T17:02:44.167Z,6.20
2018-03-16T17:05:12.585Z,6.00
2018-03-16T17:07:40.110Z,6.00
2018-03-16T17:10:08.415Z,5.90
2018-03-16T17:12:35.933Z,5.90
2018-03-16T17:15:04.270Z,5.70
2018-03-16T17:17:31.796Z,5.70
2018-03-16T17:19:59.339Z,5.60
2018-03-16T17:22:27.630Z,5.50
2018-03-16T17:24:55.171Z,5.50
2018-03-16T17:27:23.454Z,5.40
2018-03-16T17:29:51.779Z,5.40
2018-03-16T17:32:24.242Z,5.40
2018-03-16T17:34:46.995Z,5.30
2018-03-16T17:37:14.558Z,5.20
2018-03-16T17:39:42.114Z,5.20
2018-03-16T17:42:09.685Z,5.10
2018-03-16T17:44:37.203Z,5.00
2018-03-16T17:47:05.526Z,4.70
2018-03-16T17:49:33.039Z,4.70
2018-03-16T17:52:01.342Z,4.60
2018-03-16T17:54:28.865Z,4.60
2018-03-16T17:56:56.393Z,4.50
2018-03-16T17:59:23.910Z,4.40
2018-03-16T18:01:51.447Z,4.40
2018-03-16T18:04:19.762Z,4.30
2018-03-16T18:06:47.303Z,4.30
2018-03-16T18:09:14.823Z,4.20
2018-03-16T18:11:42.450Z,4.20
2018-03-16T18:14:10.019Z,4.20
2018-03-16T18:16:37.583Z,4.10
2018-03-16T18:19:05.131Z,4.10
2018-03-16T18:21:32.650Z,4.00
2018-03-16T18:24:00.974Z,3.80
2018-03-16T18:26:28.495Z,3.80
2018-03-16T18:28:56.795Z,3.80
2018-03-16T18:31:24.320Z,3.80
2018-03-16T18:33:52.627Z,3.60
2018-03-16T18:36:20.142Z,3.60
2018-03-16T18:38:47.678Z,3.60
2018-03-16T18:41:15.195Z,3.50
2018-03-16T18:43:42.736Z,3.40
2018-03-16T18:46:11.028Z,3.40
2018-03-16T18:48:39.335Z,3.30
2018-03-16T18:51:06.855Z,3.30
2018-03-16T18:53:35.174Z,3.20
2018-03-16T18:56:02.739Z,3.20
2018-03-16T18:58:30.284Z,3.10
2018-03-16T19:00:57.802Z,3.20
2018-03-16T19:03:25.426Z,3.10
2018-03-16T19:05:52.988Z,3.10
2018-03-16T19:08:20.511Z,3.00
2018-03-16T19:10:48.819Z,2.90
2018-03-16T19:13:16.386Z,2.90
2018-03-16T19:15:43.926Z,2.90
2018-03-16T19:18:11.459Z,2.80
2018-03-16T19:20:39.773Z,2.70
2018-03-16T19:23:07.303Z,2.60
2018-03-16T19:25:35.627Z,2.50
2018-03-16T19:28:03.190Z,2.50
2018-03-16T19:30:30.758Z,2.50
2018-03-16T19:32:58.281Z,2.40
2018-03-16T19:35:25.863Z,2.40
2018-03-16T19:37:53.401Z,2.40
2018-03-16T19:40:20.987Z,2.30
2018-03-16T19:42:48.509Z,2.20
2018-03-16T19:45:16.818Z,2.10
2018-03-16T19:47:44.338Z,2.10
2018-03-16T19:50:11.900Z,2.00
2018-03-16T19:52:40.189Z,1.90
2018-03-16T19:55:08.477Z,1.90
2018-03-16T19:57:36.029Z,1.80
2018-03-16T20:00:04.319Z,1.80
2018-03-16T20:02:31.874Z,1.80
2018-03-16T20:05:00.161Z,1.80
2018-03-16T20:07:27.708Z,1.70
2018-03-16T20:09:55.243Z,1.70
2018-03-16T20:12:22.863Z,1.70
2018-03-16T20:14:50.422Z,1.60
2018-03-16T20:17:17.970Z,1.60
2018-03-16T20:19:45.546Z,1.60
2018-03-16T20:22:13.089Z,1.50
2018-03-16T20:24:40.610Z,1.60
2018-03-16T20:27:09.090Z,1.60
2018-03-16T20:29:36.618Z,1.60
2018-03-16T20:32:04.137Z,1.60
2018-03-16T20:34:31.723Z,1.60
2018-03-16T20:36:59.291Z,1.50
2018-03-16T20:39:26.853Z,1.40
2018-03-16T20:41:54.408Z,1.40
2018-03-16T20:44:21.958Z,1.40
2018-03-16T20:46:49.493Z,1.30
2018-03-16T20:49:17.802Z,1.20
2018-03-16T20:51:45.325Z,1.20
2018-03-16T20:54:13.754Z,1.10
2018-03-16T20:56:41.273Z,1.10
2018-03-16T20:59:09.679Z,1.10
2018-03-16T21:01:37.349Z,1.10
2018-03-16T21:04:04.897Z,1.10
2018-03-16T21:06:32.426Z,1.00
2018-03-16T21:09:00.746Z,1.00
2018-03-16T21:11:28.265Z,0.90
2018-03-16T21:13:56.558Z,0.90
2018-03-16T21:16:24.118Z,0.90
2018-03-16T21:18:51.642Z,0.90
2018-03-16T21:21:19.267Z,0.90
2018-03-16T21:23:46.794Z,0.90
2018-03-16T21:26:15.102Z,0.90
2018-03-16T21:28:42.621Z,0.80
2018-03-16T21:31:10.980Z,0.90
2018-03-16T21:33:38.475Z,0.80
2018-03-16T21:36:06.062Z,0.80
2018-03-16T21:38:33.614Z,0.80
2018-03-16T21:41:01.154Z,0.80
2018-03-16T21:43:28.680Z,0.80
2018-03-16T21:45:57.003Z,0.70
2018-03-16T21:48:24.580Z,0.70
2018-03-16T21:50:52.126Z,0.70
2018-03-16T21:53:19.652Z,0.70
2018-03-16T21:55:47.962Z,0.70
2018-03-16T21:58:15.539Z,0.70
2018-03-16T22:00:43.105Z,0.70
2018-03-16T22:03:10.647Z,0.70
2018-03-16T22:05:38.174Z,0.60
2018-03-16T22:08:06.532Z,0.70
2018-03-16T22:10:34.030Z,0.60
2018-03-16T22:13:01.574Z,0.70
2018-03-16T22:15:29.891Z,0.70
2018-03-16T22:17:57.435Z,0.70
2018-03-16T22:20:24.959Z,0.70
2018-03-16T22:22:52.493Z,0.60
2018-03-16T22:25:20.012Z,0.60
2018-03-16T22:27:47.545Z,0.60
2018-03-16T22:30:15.866Z,0.60
2018-03-16T22:32:43.428Z,0.60
2018-03-16T22:35:10.942Z,0.60
2018-03-16T22:37:39.246Z,0.60
2018-03-16T22:40:06.831Z,0.50
2018-03-16T22:42:34.392Z,0.50
2018-03-16T22:45:01.915Z,0.60
2018-03-16T22:47:29.482Z,0.50
2018-03-16T22:49:57.067Z,0.50
2018-03-16T22:52:24.604Z,0.40
2018-03-16T22:54:52.127Z,0.40
2018-03-16T22:57:19.679Z,0.40
2018-03-16T22:59:48.744Z,0.30
2018-03-16T23:02:16.261Z,0.30
2018-03-16T23:04:44.566Z,0.30
2018-03-16T23:07:12.138Z,0.30
2018-03-16T23:09:39.698Z,0.30
2018-03-16T23:12:07.214Z,0.30
2018-03-16T23:14:35.543Z,0.30
2018-03-16T23:17:03.059Z,0.30
2018-03-16T23:19:31.361Z,0.20
2018-03-16T23:21:58.933Z,0.20
2018-03-16T23:24:26.500Z,0.20
2018-03-16T23:26:54.019Z,0.20
2018-03-16T23:29:22.327Z,0.10
2018-03-16T23:31:49.843Z,0.10
2018-03-16T23:34:18.147Z,0.10
2018-03-16T23:36:45.728Z,0.10
2018-03-16T23:39:13.290Z,0.10
2018-03-16T23:41:40.807Z,0.00
2018-03-16T23:44:09.124Z,0.00
2018-03-16T23:46:36.642Z,0.00
2018-03-16T23:49:04.252Z,0.00
2018-03-16T23:51:31.816Z,0.00
2018-03-16T23:53:59.333Z,-0.10
2018-03-16T23:56:27.634Z,0.10
2018-03-16T23:58:55.156Z,0.00
